sensor_id;sensor_type;location;lat;lon;timestamp;temperature;humidity
935;DHT22;454;53.254;10.400;2022-08-21T04:01:04;13.70;99.90
935;DHT22;454;53.254;10.400;2022-08-21T04:03:34;13.80;99.90
935;DHT22;454;53.254;10.400;2022-08-21T04:06:01;13.70;99.90
935;DHT22;454;53.254;10.400;2022-08-21T04:08:28;13.70;99.90
935;DHT22;454;53.254;10.400;2022-08-21T04:10:56;13.70;99.90
935;DHT22;454;53.254;10.400;2022-08-21T04:13:25;13.70;99.90
935;DHT22;454;53.254;10.400;2022-08-21T04:15:53;13.70;99.90
935;DHT22;454;53.254;10.400;2022-08-21T04:18:22;13.70;99.90
935;DHT22;454;53.254;10.400;2022-08-21T04:20:50;13.70;99.90
935;DHT22;454;53.254;10.400;2022-08-21T04:23:18;13.70;99.90
935;DHT22;454;53.254;10.400;2022-08-21T04:25:45;13.70;99.90
935;DHT22;454;53.254;10.400;2022-08-21T04:28:11;13.70;99.90
935;DHT22;454;53.254;10.400;2022-08-21T04:30:38;13.80;99.90
935;DHT22;454;53.254;10.400;2022-08-21T04:33:05;13.80;99.90
935;DHT22;454;53.254;10.400;2022-08-21T04:35:33;13.80;99.90
935;DHT22;454;53.254;10.400;2022-08-21T04:38:00;13.80;99.90
935;DHT22;454;53.254;10.400;2022-08-21T04:40:28;13.80;99.90
935;DHT22;454;53.254;10.400;2022-08-21T04:42:57;13.80;99.90
935;DHT22;454;53.254;10.400;2022-08-21T04:45:27;13.80;99.90
935;DHT22;454;53.254;10.400;2022-08-21T04:47:55;13.80;99.90
935;DHT22;454;53.254;10.400;2022-08-21T04:50:26;13.80;99.90
935;DHT22;454;53.254;10.400;2022-08-21T04:52:55;13.90;99.90
935;DHT22;454;53.254;10.400;2022-08-21T04:55:22;13.90;99.90
935;DHT22;454;53.254;10.400;2022-08-21T04:57:52;14.00;99.90
935;DHT22;454;53.254;10.400;2022-08-21T05:00:20;14.10;99.90
935;DHT22;454;53.254;10.400;2022-08-21T05:02:51;14.10;99.90
935;DHT22;454;53.254;10.400;2022-08-21T05:05:21;14.10;99.90
935;DHT22;454;53.254;10.400;2022-08-21T05:07:48;14.10;99.90
935;DHT22;454;53.254;10.400;2022-08-21T05:10:16;14.00;99.90
935;DHT22;454;53.254;10.400;2022-08-21T05:12:44;14.00;99.90
935;DHT22;454;53.254;10.400;2022-08-21T05:15:11;14.00;99.90
935;DHT22;454;53.254;10.400;2022-08-21T05:17:38;14.00;99.90
935;DHT22;454;53.254;10.400;2022-08-21T05:20:06;14.00;99.90
935;DHT22;454;53.254;10.400;2022-08-21T05:22:33;14.00;99.90
935;DHT22;454;53.254;10.400;2022-08-21T05:24:59;14.10;99.90
935;DHT22;454;53.254;10.400;2022-08-21T05:27:28;14.10;99.90
935;DHT22;454;53.254;10.400;2022-08-21T05:29:55;14.10;99.90
935;DHT22;454;53.254;10.400;2022-08-21T05:32:22;14.20;99.90
935;DHT22;454;53.254;10.400;2022-08-21T05:34:49;14.20;99.90
935;DHT22;454;53.254;10.400;2022-08-21T05:37:16;14.30;99.90
935;DHT22;454;53.254;10.400;2022-08-21T05:39:43;14.40;99.90
935;DHT22;454;53.254;10.400;2022-08-21T05:42:10;14.40;99.90
935;DHT22;454;53.254;10.400;2022-08-21T05:44:38;14.50;99.90
935;DHT22;454;53.254;10.400;2022-08-21T05:47:06;14.60;99.90
935;DHT22;454;53.254;10.400;2022-08-21T05:49:34;14.70;99.90
935;DHT22;454;53.254;10.400;2022-08-21T05:52:01;14.80;99.90
935;DHT22;454;53.254;10.400;2022-08-21T05:54:29;14.90;99.90
935;DHT22;454;53.254;10.400;2022-08-21T05:56:56;15.10;99.90
935;DHT22;454;53.254;10.400;2022-08-21T05:59:23;15.20;99.90
935;DHT22;454;53.254;10.400;2022-08-21T06:01:51;15.10;99.90
935;DHT22;454;53.254;10.400;2022-08-21T06:04:19;15.10;99.90
935;DHT22;454;53.254;10.400;2022-08-21T06:06:46;15.00;99.90
935;DHT22;454;53.254;10.400;2022-08-21T06:09:13;15.00;99.90
935;DHT22;454;53.254;10.400;2022-08-21T06:11:40;15.00;99.90
935;DHT22;454;53.254;10.400;2022-08-21T06:14:06;15.20;99.90
935;DHT22;454;53.254;10.400;2022-08-21T06:16:33;15.20;99.90
935;DHT22;454;53.254;10.400;2022-08-21T06:19:01;15.30;99.90
935;DHT22;454;53.254;10.400;2022-08-21T06:21:28;15.90;99.90
935;DHT22;454;53.254;10.400;2022-08-21T06:23:55;16.40;99.90
935;DHT22;454;53.254;10.400;2022-08-21T06:29:44;16.50;99.90
935;DHT22;454;53.254;10.400;2022-08-21T06:32:11;16.50;99.90
935;DHT22;454;53.254;10.400;2022-08-21T06:34:40;16.50;99.90
935;DHT22;454;53.254;10.400;2022-08-21T06:37:07;16.50;99.90
935;DHT22;454;53.254;10.400;2022-08-21T06:39:34;16.60;99.90
935;DHT22;454;53.254;10.400;2022-08-21T06:42:01;16.70;99.90
935;DHT22;454;53.254;10.400;2022-08-21T06:44:29;16.80;99.90
935;DHT22;454;53.254;10.400;2022-08-21T06:46:56;16.80;99.90
935;DHT22;454;53.254;10.400;2022-08-21T06:49:23;16.80;99.90
935;DHT22;454;53.254;10.400;2022-08-21T06:51:51;16.90;99.90
935;DHT22;454;53.254;10.400;2022-08-21T06:54:17;16.90;99.90
935;DHT22;454;53.254;10.400;2022-08-21T06:56:44;17.00;99.90
935;DHT22;454;53.254;10.400;2022-08-21T06:59:11;17.10;99.90
935;DHT22;454;53.254;10.400;2022-08-21T07:01:38;17.20;99.90
935;DHT22;454;53.254;10.400;2022-08-21T07:04:05;17.40;99.90
935;DHT22;454;53.254;10.400;2022-08-21T07:06:32;18.00;99.90
935;DHT22;454;53.254;10.400;2022-08-21T07:09:00;18.80;99.90
935;DHT22;454;53.254;10.400;2022-08-21T07:11:28;19.30;99.90
935;DHT22;454;53.254;10.400;2022-08-21T07:13:55;19.50;99.90
935;DHT22;454;53.254;10.400;2022-08-21T07:16:22;19.60;99.90
935;DHT22;454;53.254;10.400;2022-08-21T07:18:49;19.60;99.90
935;DHT22;454;53.254;10.400;2022-08-21T07:21:17;19.60;99.90
935;DHT22;454;53.254;10.400;2022-08-21T07:23:46;20.00;99.90
935;DHT22;454;53.254;10.400;2022-08-21T07:26:16;20.60;99.90
935;DHT22;454;53.254;10.400;2022-08-21T07:28:43;21.00;99.90
935;DHT22;454;53.254;10.400;2022-08-21T07:31:13;21.30;99.90
935;DHT22;454;53.254;10.400;2022-08-21T07:33:41;21.50;99.90
935;DHT22;454;53.254;10.400;2022-08-21T07:36:08;21.40;99.90
935;DHT22;454;53.254;10.400;2022-08-21T07:38:35;21.40;99.90
935;DHT22;454;53.254;10.400;2022-08-21T07:41:04;21.60;99.90
935;DHT22;454;53.254;10.400;2022-08-21T07:43:34;21.80;99.90
935;DHT22;454;53.254;10.400;2022-08-21T07:46:03;22.00;99.90
935;DHT22;454;53.254;10.400;2022-08-21T07:48:30;22.10;99.90
935;DHT22;454;53.254;10.400;2022-08-21T07:50:57;21.90;99.90
935;DHT22;454;53.254;10.400;2022-08-21T07:53:24;21.80;99.90
935;DHT22;454;53.254;10.400;2022-08-21T07:55:50;21.70;99.90
935;DHT22;454;53.254;10.400;2022-08-21T07:58:17;21.60;99.90
935;DHT22;454;53.254;10.400;2022-08-21T08:00:45;21.40;99.90
935;DHT22;454;53.254;10.400;2022-08-21T08:03:12;21.30;99.90
935;DHT22;454;53.254;10.400;2022-08-21T08:05:39;21.10;99.90
935;DHT22;454;53.254;10.400;2022-08-21T08:08:05;21.00;99.90
935;DHT22;454;53.254;10.400;2022-08-21T08:10:32;21.00;99.90
935;DHT22;454;53.254;10.400;2022-08-21T08:12:59;21.00;99.90
935;DHT22;454;53.254;10.400;2022-08-21T08:15:27;21.10;99.90
935;DHT22;454;53.254;10.400;2022-08-21T08:17:56;21.30;99.90
935;DHT22;454;53.254;10.400;2022-08-21T08:20:24;21.30;99.90
935;DHT22;454;53.254;10.400;2022-08-21T08:22:52;21.40;99.90
935;DHT22;454;53.254;10.400;2022-08-21T08:25:20;21.40;99.90
935;DHT22;454;53.254;10.400;2022-08-21T08:27:47;21.40;99.90
935;DHT22;454;53.254;10.400;2022-08-21T08:30:15;21.40;99.90
935;DHT22;454;53.254;10.400;2022-08-21T08:32:43;21.50;99.90
935;DHT22;454;53.254;10.400;2022-08-21T08:35:13;21.60;99.90
935;DHT22;454;53.254;10.400;2022-08-21T08:37:40;21.60;99.90
935;DHT22;454;53.254;10.400;2022-08-21T08:40:12;21.60;99.90
935;DHT22;454;53.254;10.400;2022-08-21T08:42:39;21.80;99.90
935;DHT22;454;53.254;10.400;2022-08-21T08:45:09;21.80;99.90
935;DHT22;454;53.254;10.400;2022-08-21T08:47:43;21.90;99.90
935;DHT22;454;53.254;10.400;2022-08-21T08:50:17;22.00;99.90
935;DHT22;454;53.254;10.400;2022-08-21T08:52:57;22.20;99.90
935;DHT22;454;53.254;10.400;2022-08-21T08:55:32;22.20;99.90
935;DHT22;454;53.254;10.400;2022-08-21T08:57:59;22.30;99.90
935;DHT22;454;53.254;10.400;2022-08-21T09:00:28;22.30;99.90
935;DHT22;454;53.254;10.400;2022-08-21T09:02:57;22.20;99.90
935;DHT22;454;53.254;10.400;2022-08-21T09:05:30;22.30;99.90
935;DHT22;454;53.254;10.400;2022-08-21T09:08:19;22.50;99.90
935;DHT22;454;53.254;10.400;2022-08-21T09:10:57;22.50;99.90
935;DHT22;454;53.254;10.400;2022-08-21T09:13:37;22.70;99.90
935;DHT22;454;53.254;10.400;2022-08-21T09:16:13;22.80;99.90
935;DHT22;454;53.254;10.400;2022-08-21T09:18:50;22.90;99.90
935;DHT22;454;53.254;10.400;2022-08-21T09:21:28;23.10;99.90
935;DHT22;454;53.254;10.400;2022-08-21T09:24:00;23.30;99.90
935;DHT22;454;53.254;10.400;2022-08-21T09:26:30;23.40;99.90
935;DHT22;454;53.254;10.400;2022-08-21T09:28:59;23.40;99.90
935;DHT22;454;53.254;10.400;2022-08-21T09:31:29;23.50;99.90
935;DHT22;454;53.254;10.400;2022-08-21T09:33:59;23.40;99.90
935;DHT22;454;53.254;10.400;2022-08-21T09:36:35;23.40;99.90
935;DHT22;454;53.254;10.400;2022-08-21T09:39:03;23.40;99.90
935;DHT22;454;53.254;10.400;2022-08-21T09:41:33;23.40;99.90
935;DHT22;454;53.254;10.400;2022-08-21T09:44:00;23.50;99.90
935;DHT22;454;53.254;10.400;2022-08-21T09:46:27;23.70;99.90
935;DHT22;454;53.254;10.400;2022-08-21T09:48:57;23.80;99.90
935;DHT22;454;53.254;10.400;2022-08-21T09:51:26;23.90;99.90
935;DHT22;454;53.254;10.400;2022-08-21T09:54:13;24.00;99.90
935;DHT22;454;53.254;10.400;2022-08-21T09:56:53;24.00;99.90
935;DHT22;454;53.254;10.400;2022-08-21T09:59:39;24.10;99.90
935;DHT22;454;53.254;10.400;2022-08-21T10:02:23;24.10;99.90
935;DHT22;454;53.254;10.400;2022-08-21T10:04:53;24.10;99.90
935;DHT22;454;53.254;10.400;2022-08-21T10:07:21;24.10;99.90
935;DHT22;454;53.254;10.400;2022-08-21T10:10:00;24.10;99.90
935;DHT22;454;53.254;10.400;2022-08-21T10:12:35;24.10;99.90
935;DHT22;454;53.254;10.400;2022-08-21T10:15:11;24.20;99.90
935;DHT22;454;53.254;10.400;2022-08-21T10:17:47;24.40;99.90
935;DHT22;454;53.254;10.400;2022-08-21T10:20:20;24.40;99.90
935;DHT22;454;53.254;10.400;2022-08-21T10:22:55;24.40;99.90
935;DHT22;454;53.254;10.400;2022-08-21T10:25:30;24.50;99.90
935;DHT22;454;53.254;10.400;2022-08-21T10:28:00;24.40;99.90
935;DHT22;454;53.254;10.400;2022-08-21T10:30:36;24.30;99.90
935;DHT22;454;53.254;10.400;2022-08-21T10:33:16;24.00;99.90
935;DHT22;454;53.254;10.400;2022-08-21T10:35:53;23.80;99.90
935;DHT22;454;53.254;10.400;2022-08-21T10:38:46;23.70;99.90
935;DHT22;454;53.254;10.400;2022-08-21T10:41:24;23.60;99.90
935;DHT22;454;53.254;10.400;2022-08-21T10:44:01;23.60;99.90
935;DHT22;454;53.254;10.400;2022-08-21T10:46:37;23.80;99.90
935;DHT22;454;53.254;10.400;2022-08-21T10:49:14;23.90;99.90
935;DHT22;454;53.254;10.400;2022-08-21T10:51:52;23.90;99.90
935;DHT22;454;53.254;10.400;2022-08-21T10:54:27;23.90;99.90
935;DHT22;454;53.254;10.400;2022-08-21T10:57:02;24.00;99.90
935;DHT22;454;53.254;10.400;2022-08-21T10:59:36;23.90;99.90
935;DHT22;454;53.254;10.400;2022-08-21T11:02:13;23.90;99.90
935;DHT22;454;53.254;10.400;2022-08-21T11:04:48;23.80;99.90
935;DHT22;454;53.254;10.400;2022-08-21T11:07:19;23.70;99.90
935;DHT22;454;53.254;10.400;2022-08-21T11:09:48;23.70;99.90
935;DHT22;454;53.254;10.400;2022-08-21T11:12:23;23.60;99.90
935;DHT22;454;53.254;10.400;2022-08-21T11:14:55;23.50;99.90
935;DHT22;454;53.254;10.400;2022-08-21T11:17:29;23.50;99.90
935;DHT22;454;53.254;10.400;2022-08-21T11:20:05;23.50;99.90
935;DHT22;454;53.254;10.400;2022-08-21T11:22:39;23.70;99.90
935;DHT22;454;53.254;10.400;2022-08-21T11:25:11;23.80;99.90
935;DHT22;454;53.254;10.400;2022-08-21T11:27:43;23.90;99.90
935;DHT22;454;53.254;10.400;2022-08-21T11:30:12;23.90;99.90
935;DHT22;454;53.254;10.400;2022-08-21T11:33:08;23.90;99.90
935;DHT22;454;53.254;10.400;2022-08-21T11:35:44;23.90;99.90
935;DHT22;454;53.254;10.400;2022-08-21T11:38:22;24.10;99.90
935;DHT22;454;53.254;10.400;2022-08-21T11:41:03;24.10;99.90
935;DHT22;454;53.254;10.400;2022-08-21T11:43:38;24.10;99.90
935;DHT22;454;53.254;10.400;2022-08-21T11:46:20;24.20;99.90
935;DHT22;454;53.254;10.400;2022-08-21T11:49:02;24.30;99.90
935;DHT22;454;53.254;10.400;2022-08-21T11:51:37;24.40;99.90
935;DHT22;454;53.254;10.400;2022-08-21T11:54:10;24.50;99.90
935;DHT22;454;53.254;10.400;2022-08-21T11:56:45;24.50;99.90
935;DHT22;454;53.254;10.400;2022-08-21T11:59:19;24.40;99.90
935;DHT22;454;53.254;10.400;2022-08-21T12:01:50;24.50;99.90
935;DHT22;454;53.254;10.400;2022-08-21T12:04:23;24.40;99.90
935;DHT22;454;53.254;10.400;2022-08-21T12:06:51;24.20;99.90
935;DHT22;454;53.254;10.400;2022-08-21T12:09:32;24.20;99.90
935;DHT22;454;53.254;10.400;2022-08-21T12:12:02;24.30;99.90
935;DHT22;454;53.254;10.400;2022-08-21T12:14:39;24.30;99.90
935;DHT22;454;53.254;10.400;2022-08-21T12:17:08;24.30;99.90
935;DHT22;454;53.254;10.400;2022-08-21T12:19:35;24.30;99.90
935;DHT22;454;53.254;10.400;2022-08-21T12:22:10;24.40;99.90
935;DHT22;454;53.254;10.400;2022-08-21T12:24:39;24.40;99.90
935;DHT22;454;53.254;10.400;2022-08-21T12:27:20;24.50;99.90
935;DHT22;454;53.254;10.400;2022-08-21T12:29:55;24.50;99.90
935;DHT22;454;53.254;10.400;2022-08-21T12:32:25;24.50;99.90
935;DHT22;454;53.254;10.400;2022-08-21T12:34:54;24.60;99.90
935;DHT22;454;53.254;10.400;2022-08-21T12:37:27;24.70;99.90
935;DHT22;454;53.254;10.400;2022-08-21T12:39:59;24.90;99.90
935;DHT22;454;53.254;10.400;2022-08-21T12:42:33;24.90;98.90
935;DHT22;454;53.254;10.400;2022-08-21T12:45:11;24.90;99.30
935;DHT22;454;53.254;10.400;2022-08-21T12:47:45;25.00;98.50
935;DHT22;454;53.254;10.400;2022-08-21T12:50:17;25.10;98.00
935;DHT22;454;53.254;10.400;2022-08-21T12:52:55;25.10;98.80
935;DHT22;454;53.254;10.400;2022-08-21T12:55:29;25.20;98.20
935;DHT22;454;53.254;10.400;2022-08-21T12:57:56;25.30;98.60
935;DHT22;454;53.254;10.400;2022-08-21T13:00:27;25.30;98.80
935;DHT22;454;53.254;10.400;2022-08-21T13:02:54;25.40;98.30
935;DHT22;454;53.254;10.400;2022-08-21T13:05:30;25.40;98.90
935;DHT22;454;53.254;10.400;2022-08-21T13:07:58;25.30;99.10
935;DHT22;454;53.254;10.400;2022-08-21T13:10:27;25.20;99.50
935;DHT22;454;53.254;10.400;2022-08-21T13:12:56;25.20;99.40
935;DHT22;454;53.254;10.400;2022-08-21T13:15:28;25.20;99.40
935;DHT22;454;53.254;10.400;2022-08-21T13:17:55;25.10;99.10
935;DHT22;454;53.254;10.400;2022-08-21T13:20:29;25.20;99.00
935;DHT22;454;53.254;10.400;2022-08-21T13:22:56;25.20;98.80
935;DHT22;454;53.254;10.400;2022-08-21T13:25:26;25.20;98.10
935;DHT22;454;53.254;10.400;2022-08-21T13:28:00;25.20;98.40
935;DHT22;454;53.254;10.400;2022-08-21T13:30:28;25.10;98.30
935;DHT22;454;53.254;10.400;2022-08-21T13:32:59;25.20;98.90
935;DHT22;454;53.254;10.400;2022-08-21T13:35:31;25.20;98.00
935;DHT22;454;53.254;10.400;2022-08-21T13:38:01;25.20;98.00
935;DHT22;454;53.254;10.400;2022-08-21T13:40:32;25.20;98.70
935;DHT22;454;53.254;10.400;2022-08-21T13:43:10;25.20;98.20
935;DHT22;454;53.254;10.400;2022-08-21T13:45:43;25.10;98.20
935;DHT22;454;53.254;10.400;2022-08-21T13:48:11;25.00;98.60
935;DHT22;454;53.254;10.400;2022-08-21T13:50:38;24.80;98.30
935;DHT22;454;53.254;10.400;2022-08-21T13:53:07;24.80;98.40
935;DHT22;454;53.254;10.400;2022-08-21T13:55:46;24.80;99.10
935;DHT22;454;53.254;10.400;2022-08-21T13:58:12;24.90;98.80
935;DHT22;454;53.254;10.400;2022-08-21T14:00:53;24.90;98.90
935;DHT22;454;53.254;10.400;2022-08-21T14:03:30;24.90;98.60
935;DHT22;454;53.254;10.400;2022-08-21T14:05:57;24.80;98.70
935;DHT22;454;53.254;10.400;2022-08-21T14:08:29;24.90;98.80
935;DHT22;454;53.254;10.400;2022-08-21T14:10:57;25.00;98.90
935;DHT22;454;53.254;10.400;2022-08-21T14:13:34;24.80;98.40
935;DHT22;454;53.254;10.400;2022-08-21T14:16:13;24.80;98.80
935;DHT22;454;53.254;10.400;2022-08-21T14:18:47;24.60;98.50
935;DHT22;454;53.254;10.400;2022-08-21T14:21:24;24.60;98.80
935;DHT22;454;53.254;10.400;2022-08-21T14:24:01;24.60;98.60
935;DHT22;454;53.254;10.400;2022-08-21T14:26:28;24.70;99.30
935;DHT22;454;53.254;10.400;2022-08-21T14:28:58;24.70;99.50
935;DHT22;454;53.254;10.400;2022-08-21T14:31:30;24.70;98.60
935;DHT22;454;53.254;10.400;2022-08-21T14:33:58;24.60;98.60
935;DHT22;454;53.254;10.400;2022-08-21T14:36:25;24.70;99.00
935;DHT22;454;53.254;10.400;2022-08-21T14:38:52;24.80;98.50
935;DHT22;454;53.254;10.400;2022-08-21T14:41:21;24.90;98.00
935;DHT22;454;53.254;10.400;2022-08-21T14:43:48;24.90;98.60
935;DHT22;454;53.254;10.400;2022-08-21T14:46:21;24.90;98.10
935;DHT22;454;53.254;10.400;2022-08-21T14:48:49;25.00;99.20
935;DHT22;454;53.254;10.400;2022-08-21T14:51:16;25.00;98.00
935;DHT22;454;53.254;10.400;2022-08-21T14:53:44;24.90;97.40
935;DHT22;454;53.254;10.400;2022-08-21T14:56:11;24.90;97.50
935;DHT22;454;53.254;10.400;2022-08-21T14:58:42;24.90;98.00
935;DHT22;454;53.254;10.400;2022-08-21T15:01:11;24.90;98.60
935;DHT22;454;53.254;10.400;2022-08-21T15:03:39;25.00;99.00
935;DHT22;454;53.254;10.400;2022-08-21T15:06:08;25.00;98.10
935;DHT22;454;53.254;10.400;2022-08-21T15:08:35;25.10;97.90
935;DHT22;454;53.254;10.400;2022-08-21T15:11:04;25.20;97.00
935;DHT22;454;53.254;10.400;2022-08-21T15:13:31;25.30;96.60
935;DHT22;454;53.254;10.400;2022-08-21T15:15:58;25.30;96.90
935;DHT22;454;53.254;10.400;2022-08-21T15:18:27;25.40;96.30
935;DHT22;454;53.254;10.400;2022-08-21T15:20:54;25.40;96.20
935;DHT22;454;53.254;10.400;2022-08-21T15:23:22;25.30;96.80
935;DHT22;454;53.254;10.400;2022-08-21T15:25:50;25.10;97.10
935;DHT22;454;53.254;10.400;2022-08-21T15:28:18;25.00;97.40
935;DHT22;454;53.254;10.400;2022-08-21T15:30:46;24.90;97.60
935;DHT22;454;53.254;10.400;2022-08-21T15:33:13;24.80;98.20
935;DHT22;454;53.254;10.400;2022-08-21T15:35:40;24.70;98.60
935;DHT22;454;53.254;10.400;2022-08-21T15:38:07;24.70;98.60
935;DHT22;454;53.254;10.400;2022-08-21T15:40:35;24.70;98.80
935;DHT22;454;53.254;10.400;2022-08-21T15:43:04;24.80;98.80
935;DHT22;454;53.254;10.400;2022-08-21T15:45:32;24.80;98.60
935;DHT22;454;53.254;10.400;2022-08-21T15:47:59;25.00;98.80
935;DHT22;454;53.254;10.400;2022-08-21T15:50:28;24.90;98.20
935;DHT22;454;53.254;10.400;2022-08-21T15:52:57;24.90;98.40
935;DHT22;454;53.254;10.400;2022-08-21T15:55:24;24.90;98.00
935;DHT22;454;53.254;10.400;2022-08-21T15:57:52;24.90;97.80
935;DHT22;454;53.254;10.400;2022-08-21T16:00:21;24.90;98.20
935;DHT22;454;53.254;10.400;2022-08-21T16:02:50;25.00;98.10
935;DHT22;454;53.254;10.400;2022-08-21T16:05:19;24.90;97.90
935;DHT22;454;53.254;10.400;2022-08-21T16:07:47;25.00;98.20
935;DHT22;454;53.254;10.400;2022-08-21T16:10:16;25.00;97.90
935;DHT22;454;53.254;10.400;2022-08-21T16:12:47;25.00;97.50
935;DHT22;454;53.254;10.400;2022-08-21T16:15:17;24.90;97.30
935;DHT22;454;53.254;10.400;2022-08-21T16:17:45;24.80;97.80
935;DHT22;454;53.254;10.400;2022-08-21T16:20:17;24.90;97.30
935;DHT22;454;53.254;10.400;2022-08-21T16:22:44;24.90;97.20
935;DHT22;454;53.254;10.400;2022-08-21T16:25:11;24.90;97.40
935;DHT22;454;53.254;10.400;2022-08-21T16:27:40;24.90;97.40
935;DHT22;454;53.254;10.400;2022-08-21T16:30:08;25.00;97.30
935;DHT22;454;53.254;10.400;2022-08-21T16:32:36;25.00;97.10
935;DHT22;454;53.254;10.400;2022-08-21T16:35:04;25.00;97.60
935;DHT22;454;53.254;10.400;2022-08-21T16:37:31;25.00;97.40
935;DHT22;454;53.254;10.400;2022-08-21T16:39:57;25.00;97.40
935;DHT22;454;53.254;10.400;2022-08-21T16:42:25;25.00;97.40
935;DHT22;454;53.254;10.400;2022-08-21T16:44:53;25.00;97.00
935;DHT22;454;53.254;10.400;2022-08-21T16:47:21;24.90;97.10
935;DHT22;454;53.254;10.400;2022-08-21T16:49:49;24.80;97.40
935;DHT22;454;53.254;10.400;2022-08-21T16:52:16;24.80;98.00
935;DHT22;454;53.254;10.400;2022-08-21T16:54:43;24.80;97.70
935;DHT22;454;53.254;10.400;2022-08-21T16:57:10;24.70;97.20
935;DHT22;454;53.254;10.400;2022-08-21T16:59:37;24.60;97.40
935;DHT22;454;53.254;10.400;2022-08-21T17:02:21;24.50;97.30
935;DHT22;454;53.254;10.400;2022-08-21T17:04:51;24.40;97.50
935;DHT22;454;53.254;10.400;2022-08-21T17:07:18;24.30;97.50
935;DHT22;454;53.254;10.400;2022-08-21T17:09:44;24.20;97.80
935;DHT22;454;53.254;10.400;2022-08-21T17:12:11;24.20;97.90
935;DHT22;454;53.254;10.400;2022-08-21T17:14:39;24.10;98.10
935;DHT22;454;53.254;10.400;2022-08-21T17:17:07;24.00;98.30
935;DHT22;454;53.254;10.400;2022-08-21T17:19:35;23.90;98.60
935;DHT22;454;53.254;10.400;2022-08-21T17:22:03;23.80;98.70
935;DHT22;454;53.254;10.400;2022-08-21T17:24:30;23.80;98.90
935;DHT22;454;53.254;10.400;2022-08-21T17:26:57;23.70;99.10
935;DHT22;454;53.254;10.400;2022-08-21T17:29:26;23.60;99.60
935;DHT22;454;53.254;10.400;2022-08-21T17:31:54;23.60;99.70
935;DHT22;454;53.254;10.400;2022-08-21T17:34:22;23.50;99.90
935;DHT22;454;53.254;10.400;2022-08-21T17:36:49;23.40;99.90
935;DHT22;454;53.254;10.400;2022-08-21T17:39:17;23.40;99.90
935;DHT22;454;53.254;10.400;2022-08-21T17:41:45;23.30;99.90
935;DHT22;454;53.254;10.400;2022-08-21T17:44:14;23.20;99.90
935;DHT22;454;53.254;10.400;2022-08-21T17:46:42;23.10;99.90
935;DHT22;454;53.254;10.400;2022-08-21T17:49:08;23.10;99.90
935;DHT22;454;53.254;10.400;2022-08-21T17:51:36;23.00;99.90
935;DHT22;454;53.254;10.400;2022-08-21T17:54:03;22.90;99.90
935;DHT22;454;53.254;10.400;2022-08-21T17:56:33;22.90;99.90
935;DHT22;454;53.254;10.400;2022-08-21T17:59:02;22.80;99.90
935;DHT22;454;53.254;10.400;2022-08-21T18:01:32;22.70;99.90
935;DHT22;454;53.254;10.400;2022-08-21T18:04:00;22.60;99.90
935;DHT22;454;53.254;10.400;2022-08-21T18:06:27;22.50;99.90
935;DHT22;454;53.254;10.400;2022-08-21T18:08:54;22.40;99.90
935;DHT22;454;53.254;10.400;2022-08-21T18:11:24;22.30;99.90
935;DHT22;454;53.254;10.400;2022-08-21T18:13:54;22.30;99.90
935;DHT22;454;53.254;10.400;2022-08-21T18:16:26;22.20;99.90
935;DHT22;454;53.254;10.400;2022-08-21T18:18:54;22.10;99.90
935;DHT22;454;53.254;10.400;2022-08-21T18:21:21;22.00;99.90
935;DHT22;454;53.254;10.400;2022-08-21T18:23:48;21.90;99.90
935;DHT22;454;53.254;10.400;2022-08-21T18:26:20;21.90;99.90
935;DHT22;454;53.254;10.400;2022-08-21T18:28:50;21.80;99.90
935;DHT22;454;53.254;10.400;2022-08-21T18:31:19;21.70;99.90
935;DHT22;454;53.254;10.400;2022-08-21T18:33:47;21.60;99.90
935;DHT22;454;53.254;10.400;2022-08-21T18:36:13;21.60;99.90
935;DHT22;454;53.254;10.400;2022-08-21T18:38:40;21.50;99.90
935;DHT22;454;53.254;10.400;2022-08-21T18:41:07;21.40;99.90
935;DHT22;454;53.254;10.400;2022-08-21T18:43:34;21.30;99.90
935;DHT22;454;53.254;10.400;2022-08-21T18:46:01;21.20;99.90
935;DHT22;454;53.254;10.400;2022-08-21T18:48:29;21.20;99.90
935;DHT22;454;53.254;10.400;2022-08-21T18:50:56;21.10;99.90
935;DHT22;454;53.254;10.400;2022-08-21T18:53:23;21.00;99.90
935;DHT22;454;53.254;10.400;2022-08-21T18:55:50;20.90;99.90
935;DHT22;454;53.254;10.400;2022-08-21T18:58:17;20.90;99.90
935;DHT22;454;53.254;10.400;2022-08-21T19:00:45;20.80;99.90
935;DHT22;454;53.254;10.400;2022-08-21T19:03:15;20.80;99.90
935;DHT22;454;53.254;10.400;2022-08-21T19:05:44;20.70;99.90
935;DHT22;454;53.254;10.400;2022-08-21T19:08:13;20.60;99.90
935;DHT22;454;53.254;10.400;2022-08-21T19:10:41;20.60;99.90
935;DHT22;454;53.254;10.400;2022-08-21T19:13:09;20.50;99.90
935;DHT22;454;53.254;10.400;2022-08-21T19:15:38;20.40;99.90
935;DHT22;454;53.254;10.400;2022-08-21T19:18:10;20.40;99.90
935;DHT22;454;53.254;10.400;2022-08-21T19:20:37;20.40;99.90
935;DHT22;454;53.254;10.400;2022-08-21T19:23:10;20.30;99.90
935;DHT22;454;53.254;10.400;2022-08-21T19:25:40;20.30;99.90
935;DHT22;454;53.254;10.400;2022-08-21T19:28:10;20.20;99.90
935;DHT22;454;53.254;10.400;2022-08-21T19:30:39;20.20;99.90
935;DHT22;454;53.254;10.400;2022-08-21T19:33:07;20.10;99.90
935;DHT22;454;53.254;10.400;2022-08-21T19:35:35;20.00;99.90
935;DHT22;454;53.254;10.400;2022-08-21T19:38:02;20.00;99.90
935;DHT22;454;53.254;10.400;2022-08-21T19:40:30;20.00;99.90
935;DHT22;454;53.254;10.400;2022-08-21T19:42:57;19.90;99.90
935;DHT22;454;53.254;10.400;2022-08-21T19:45:24;19.90;99.90
935;DHT22;454;53.254;10.400;2022-08-21T19:47:51;19.90;99.90
935;DHT22;454;53.254;10.400;2022-08-21T19:50:17;19.90;99.90
935;DHT22;454;53.254;10.400;2022-08-21T19:52:44;20.00;99.90
935;DHT22;454;53.254;10.400;2022-08-21T19:55:11;20.00;99.90
935;DHT22;454;53.254;10.400;2022-08-21T19:57:39;20.00;99.90
935;DHT22;454;53.254;10.400;2022-08-21T20:00:07;20.00;99.90
935;DHT22;454;53.254;10.400;2022-08-21T20:02:34;19.90;99.90
935;DHT22;454;53.254;10.400;2022-08-21T20:05:01;19.90;99.90
935;DHT22;454;53.254;10.400;2022-08-21T20:07:28;19.90;99.90
935;DHT22;454;53.254;10.400;2022-08-21T20:09:55;19.80;99.90
935;DHT22;454;53.254;10.400;2022-08-21T20:12:22;19.80;99.90
935;DHT22;454;53.254;10.400;2022-08-21T20:14:50;19.80;99.90
935;DHT22;454;53.254;10.400;2022-08-21T20:17:18;19.70;99.90
935;DHT22;454;53.254;10.400;2022-08-21T20:19:47;19.70;99.90
935;DHT22;454;53.254;10.400;2022-08-21T20:22:14;19.60;99.90
935;DHT22;454;53.254;10.400;2022-08-21T20:24:41;19.60;99.90
935;DHT22;454;53.254;10.400;2022-08-21T20:27:11;19.60;99.90
935;DHT22;454;53.254;10.400;2022-08-21T20:29:38;19.50;99.90
935;DHT22;454;53.254;10.400;2022-08-21T20:32:08;19.50;99.90
935;DHT22;454;53.254;10.400;2022-08-21T20:34:35;19.50;99.90
935;DHT22;454;53.254;10.400;2022-08-21T20:37:02;19.50;99.90